createdAt,value
2023-04-20T00:01:54.549Z,10.68
2023-04-20T00:04:22.387Z,11.63
2023-04-20T00:06:51.767Z,10.52
2023-04-20T00:09:22.025Z,14.35
2023-04-20T00:11:49.749Z,10.93
2023-04-20T00:14:17.258Z,13.02
2023-04-20T00:16:44.807Z,12.88
2023-04-20T00:19:12.917Z,11.80
2023-04-20T00:21:40.332Z,12.63
2023-04-20T00:24:07.945Z,13.57
2023-04-20T00:26:35.401Z,11.70
2023-04-20T00:29:03.692Z,14.18
2023-04-20T00:31:31.833Z,15.95
2023-04-20T00:33:59.356Z,13.00
2023-04-20T00:36:27.918Z,12.57
2023-04-20T00:38:55.546Z,12.45
2023-04-20T00:41:23.420Z,12.77
2023-04-20T00:43:52.090Z,11.80
2023-04-20T00:46:20.147Z,11.90
2023-04-20T00:48:47.744Z,12.77
2023-04-20T00:51:15.523Z,12.45
2023-04-20T00:53:43.091Z,12.82
2023-04-20T00:56:10.903Z,13.07
2023-04-20T00:58:42.750Z,10.98
2023-04-20T01:01:11.323Z,12.82
2023-04-20T01:03:42.603Z,11.93
2023-04-20T01:06:11.044Z,10.57
2023-04-20T01:08:46.490Z,11.40
2023-04-20T01:11:15.211Z,12.88
2023-04-20T01:13:43.053Z,12.13
2023-04-20T01:16:11.721Z,13.52
2023-04-20T01:18:46.506Z,11.90
2023-04-20T01:21:14.862Z,13.48
2023-04-20T01:23:42.276Z,12.73
2023-04-20T01:26:10.707Z,13.68
2023-04-20T01:28:38.588Z,12.95
2023-04-20T01:31:07.536Z,14.60
2023-04-20T01:33:35.248Z,13.02
2023-04-20T01:36:02.667Z,12.32
2023-04-20T01:38:32.969Z,13.10
2023-04-20T01:41:05.757Z,16.38
2023-04-20T01:43:33.533Z,11.55
2023-04-20T01:46:01.255Z,11.82
2023-04-20T01:48:28.832Z,23.60
2023-04-20T01:50:56.305Z,12.88
2023-04-20T01:53:25.229Z,13.38
2023-04-20T01:55:52.677Z,11.93
2023-04-20T01:58:23.182Z,13.95
2023-04-20T02:00:50.762Z,12.63
2023-04-20T02:03:18.709Z,14.90
2023-04-20T02:05:47.757Z,13.45
2023-04-20T02:08:15.206Z,12.38
2023-04-20T02:10:42.622Z,13.15
2023-04-20T02:13:10.157Z,14.77
2023-04-20T02:15:37.674Z,11.63
2023-04-20T02:18:05.264Z,14.55
2023-04-20T02:20:32.858Z,13.13
2023-04-20T02:23:00.283Z,13.13
2023-04-20T02:25:28.816Z,14.32
2023-04-20T02:27:56.221Z,11.60
2023-04-20T02:30:23.752Z,11.50
2023-04-20T02:32:51.297Z,13.40
2023-04-20T02:35:19.127Z,12.52
2023-04-20T02:37:46.763Z,12.15
2023-04-20T02:40:14.578Z,13.20
2023-04-20T02:42:42.221Z,12.98
2023-04-20T02:45:11.427Z,12.38
2023-04-20T02:47:40.245Z,12.48
2023-04-20T02:50:09.197Z,13.75
2023-04-20T02:52:52.329Z,17.65
2023-04-20T02:55:19.946Z,12.23
2023-04-20T02:57:50.654Z,14.48
2023-04-20T03:00:19.127Z,11.50
2023-04-20T03:03:03.209Z,14.18
2023-04-20T03:05:30.952Z,14.75
2023-04-20T03:07:58.647Z,15.75
2023-04-20T03:10:27.175Z,13.02
2023-04-20T03:12:59.958Z,13.35
2023-04-20T03:15:34.460Z,12.55
2023-04-20T03:18:22.178Z,13.32
2023-04-20T03:20:49.814Z,13.95
2023-04-20T03:23:17.223Z,16.17
2023-04-20T03:25:46.372Z,18.83
2023-04-20T03:28:25.634Z,15.07
2023-04-20T03:30:53.279Z,16.27
2023-04-20T03:33:21.172Z,17.70
2023-04-20T03:35:48.870Z,15.80
2023-04-20T03:38:16.251Z,17.27
2023-04-20T03:40:43.627Z,17.95
2023-04-20T03:43:12.189Z,23.65
2023-04-20T03:45:39.731Z,17.85
2023-04-20T03:48:07.142Z,18.77
2023-04-20T03:50:34.757Z,19.33
2023-04-20T03:53:02.204Z,16.80
2023-04-20T03:55:30.309Z,19.83
2023-04-20T03:58:03.562Z,17.83
2023-04-20T04:00:40.403Z,20.15
2023-04-20T04:03:12.103Z,19.27
2023-04-20T04:05:44.030Z,20.02
2023-04-20T04:08:11.946Z,21.27
2023-04-20T04:10:39.645Z,18.35
2023-04-20T04:13:07.139Z,21.83
2023-04-20T04:15:40.340Z,23.60
2023-04-20T04:18:13.338Z,21.80
2023-04-20T04:20:42.288Z,22.52
2023-04-20T04:23:12.000Z,22.30
2023-04-20T04:25:52.839Z,20.13
2023-04-20T04:28:24.688Z,22.48
2023-04-20T04:31:06.120Z,19.58
2023-04-20T04:33:35.148Z,20.40
2023-04-20T04:36:04.127Z,16.77
2023-04-20T04:38:34.146Z,20.67
2023-04-20T04:41:01.941Z,18.50
2023-04-20T04:43:31.065Z,17.50
2023-04-20T04:46:09.944Z,22.55
2023-04-20T04:48:40.621Z,19.20
2023-04-20T04:51:08.104Z,20.75
2023-04-20T04:53:35.979Z,17.05
2023-04-20T04:56:06.898Z,19.83
2023-04-20T04:58:34.546Z,16.63
2023-04-20T05:01:02.092Z,25.77
2023-04-20T05:03:29.924Z,22.60
2023-04-20T05:05:57.461Z,19.27
2023-04-20T05:08:25.174Z,18.77
2023-04-20T05:10:52.694Z,18.33
2023-04-20T05:13:20.394Z,18.90
2023-04-20T05:15:47.845Z,17.05
2023-04-20T05:18:15.381Z,17.70
2023-04-20T05:20:42.773Z,18.83
2023-04-20T05:23:10.505Z,20.33
2023-04-20T05:25:38.110Z,18.60
2023-04-20T05:28:05.894Z,21.33
2023-04-20T05:30:33.344Z,21.33
2023-04-20T05:33:00.824Z,20.13
2023-04-20T05:35:28.270Z,18.60
2023-04-20T05:37:55.838Z,25.40
2023-04-20T05:40:23.312Z,21.33
2023-04-20T05:42:50.938Z,23.73
2023-04-20T05:45:18.397Z,19.02
2023-04-20T05:47:57.985Z,16.95
2023-04-20T05:50:26.417Z,17.30
2023-04-20T05:52:54.437Z,18.83
2023-04-20T05:55:22.822Z,14.35
2023-04-20T05:57:52.134Z,18.65
2023-04-20T06:00:20.264Z,16.30
2023-04-20T06:02:48.002Z,15.60
2023-04-20T06:05:15.715Z,14.13
2023-04-20T06:07:43.182Z,14.45
2023-04-20T06:10:10.893Z,12.88
2023-04-20T06:12:38.467Z,13.02
2023-04-20T06:15:10.904Z,12.52
2023-04-20T06:17:40.665Z,10.02
2023-04-20T06:20:09.771Z,10.30
2023-04-20T06:22:37.639Z,12.35
2023-04-20T06:25:05.285Z,12.25
2023-04-20T06:27:32.683Z,11.38
2023-04-20T06:30:00.205Z,12.63
2023-04-20T06:32:27.669Z,8.63
2023-04-20T06:34:55.164Z,10.65
2023-04-20T06:37:22.571Z,11.10
2023-04-20T06:39:53.899Z,9.88
2023-04-20T06:42:21.664Z,11.10
2023-04-20T06:44:50.371Z,8.43
2023-04-20T06:47:17.846Z,10.32
2023-04-20T06:49:45.226Z,7.88
2023-04-20T06:52:12.728Z,10.10
2023-04-20T06:54:40.368Z,8.20
2023-04-20T06:57:07.820Z,10.40
2023-04-20T06:59:35.752Z,8.63
2023-04-20T07:02:03.331Z,9.65
2023-04-20T07:04:30.919Z,12.57
2023-04-20T07:06:58.406Z,10.40
2023-04-20T07:09:25.820Z,10.35
2023-04-20T07:11:53.345Z,10.90
2023-04-20T07:14:21.008Z,12.35
2023-04-20T07:16:48.564Z,11.35
2023-04-20T07:19:16.242Z,9.38
2023-04-20T07:21:43.846Z,10.80
2023-04-20T07:24:11.316Z,8.20
2023-04-20T07:26:38.848Z,7.00
2023-04-20T07:29:06.306Z,8.38
2023-04-20T07:31:35.305Z,7.07
2023-04-20T07:34:03.438Z,9.40
2023-04-20T07:36:30.972Z,9.63
2023-04-20T07:38:58.350Z,8.95
2023-04-20T07:41:25.902Z,7.45
2023-04-20T07:43:53.321Z,8.10
2023-04-20T07:46:21.732Z,9.18
2023-04-20T07:48:49.445Z,7.20
2023-04-20T07:51:17.205Z,6.80
2023-04-20T07:53:44.615Z,10.00
2023-04-20T07:56:12.069Z,7.18
2023-04-20T07:58:40.821Z,8.55
2023-04-20T08:01:08.327Z,7.22
2023-04-20T08:03:36.392Z,6.10
2023-04-20T08:06:04.235Z,8.20
2023-04-20T08:08:31.799Z,10.68
2023-04-20T08:10:59.419Z,6.55
2023-04-20T08:13:27.659Z,8.07
2023-04-20T08:15:55.175Z,9.25
2023-04-20T08:18:22.704Z,11.20
2023-04-20T08:20:51.443Z,8.68
2023-04-20T08:23:18.948Z,14.52
2023-04-20T08:25:46.368Z,9.57
2023-04-20T08:28:24.299Z,6.45
2023-04-20T08:31:00.448Z,8.30
2023-04-20T08:33:27.933Z,9.40
2023-04-20T08:35:55.473Z,9.80
2023-04-20T08:38:33.318Z,6.60
2023-04-20T08:41:01.497Z,7.05
2023-04-20T08:43:28.956Z,8.13
2023-04-20T08:45:59.993Z,7.93
2023-04-20T08:48:28.925Z,8.98
2023-04-20T08:50:56.972Z,15.50
2023-04-20T08:53:24.391Z,7.95
2023-04-20T08:55:51.842Z,8.90
2023-04-20T08:58:19.300Z,7.65
2023-04-20T09:00:47.462Z,8.65
2023-04-20T09:03:15.106Z,9.10
2023-04-20T09:05:44.892Z,7.78
2023-04-20T09:08:12.302Z,11.23
2023-04-20T09:10:41.069Z,8.18
2023-04-20T09:13:08.614Z,7.18
2023-04-20T09:15:36.105Z,7.65
2023-04-20T09:18:14.157Z,10.07
2023-04-20T09:20:41.724Z,6.70
2023-04-20T09:23:12.564Z,6.15
2023-04-20T09:25:41.236Z,7.38
2023-04-20T09:28:09.230Z,6.57
2023-04-20T09:30:47.304Z,6.05
2023-04-20T09:33:14.937Z,8.43
2023-04-20T09:35:44.079Z,6.82
2023-04-20T09:38:13.153Z,6.57
2023-04-20T09:40:40.558Z,6.43
2023-04-20T09:43:20.569Z,9.90
2023-04-20T09:45:49.134Z,7.65
2023-04-20T09:48:19.431Z,6.65
2023-04-20T09:50:50.107Z,6.30
2023-04-20T09:53:19.451Z,6.97
2023-04-20T09:55:51.276Z,8.23
2023-04-20T09:58:23.542Z,9.15
2023-04-20T10:00:51.309Z,7.63
2023-04-20T10:03:19.798Z,8.20
2023-04-20T10:05:47.851Z,8.20
2023-04-20T10:08:15.452Z,8.75
2023-04-20T10:10:49.857Z,6.43
2023-04-20T10:13:19.527Z,8.40
2023-04-20T10:15:47.371Z,7.70
2023-04-20T10:18:25.117Z,6.47
2023-04-20T10:20:53.317Z,6.97
2023-04-20T10:23:21.231Z,8.93
2023-04-20T10:25:56.857Z,9.60
2023-04-20T10:28:24.373Z,9.25
2023-04-20T10:30:52.649Z,11.55
2023-04-20T10:33:20.901Z,7.20
2023-04-20T10:35:55.283Z,7.15
2023-04-20T10:38:32.950Z,7.10
2023-04-20T10:41:13.793Z,7.10
2023-04-20T10:43:44.150Z,11.68
2023-04-20T10:46:21.994Z,7.78
2023-04-20T10:48:53.383Z,9.88
2023-04-20T10:51:21.163Z,11.52
2023-04-20T10:53:58.709Z,10.95
2023-04-20T10:56:27.218Z,7.18
2023-04-20T10:58:54.928Z,6.78
2023-04-20T11:01:22.400Z,6.35
2023-04-20T11:03:53.882Z,7.63
2023-04-20T11:06:23.404Z,8.77
2023-04-20T11:08:51.093Z,8.15
2023-04-20T11:11:24.723Z,11.55
2023-04-20T11:13:52.529Z,10.43
2023-04-20T11:16:20.526Z,8.15
2023-04-20T11:18:53.906Z,7.35
2023-04-20T11:21:22.280Z,11.13
2023-04-20T11:23:50.110Z,10.15
2023-04-20T11:26:17.587Z,9.13
2023-04-20T11:28:54.510Z,6.95
2023-04-20T11:31:23.630Z,8.57
2023-04-20T11:33:51.243Z,7.20
2023-04-20T11:36:19.753Z,7.68
2023-04-20T11:38:47.188Z,9.90
2023-04-20T11:41:14.679Z,6.80
2023-04-20T11:43:43.560Z,5.50
2023-04-20T11:46:18.294Z,7.25
2023-04-20T11:48:46.443Z,9.00
2023-04-20T11:51:14.412Z,6.85
2023-04-20T11:53:42.035Z,6.75
2023-04-20T11:56:09.815Z,6.72
2023-04-20T11:58:38.192Z,8.15
2023-04-20T12:01:05.722Z,7.05
2023-04-20T12:03:33.388Z,6.65
2023-04-20T12:06:00.964Z,7.60
2023-04-20T12:08:28.397Z,6.78
2023-04-20T12:10:58.084Z,7.40
2023-04-20T12:13:26.226Z,7.05
2023-04-20T12:15:53.789Z,6.82
2023-04-20T12:18:21.291Z,4.50
2023-04-20T12:20:50.211Z,5.85
2023-04-20T12:23:17.733Z,4.90
2023-04-20T12:25:45.542Z,5.40
2023-04-20T12:28:13.077Z,7.32
2023-04-20T12:30:40.504Z,6.05
2023-04-20T12:33:08.071Z,6.53
2023-04-20T12:35:37.490Z,7.18
2023-04-20T12:38:08.559Z,6.85
2023-04-20T12:40:36.081Z,4.72
2023-04-20T12:43:03.489Z,5.18
2023-04-20T12:45:31.236Z,4.72
2023-04-20T12:48:00.398Z,6.10
2023-04-20T12:50:28.300Z,7.70
2023-04-20T12:52:56.265Z,7.72
2023-04-20T12:55:24.018Z,6.53
2023-04-20T12:57:51.495Z,9.70
2023-04-20T13:00:19.298Z,6.18
2023-04-20T13:02:46.883Z,6.00
2023-04-20T13:05:14.517Z,6.63
2023-04-20T13:07:41.991Z,8.63
2023-04-20T13:10:09.868Z,6.60
2023-04-20T13:12:37.337Z,8.75
2023-04-20T13:15:05.127Z,12.05
2023-04-20T13:17:32.620Z,15.48
2023-04-20T13:20:00.221Z,9.10
2023-04-20T13:22:27.702Z,9.13
2023-04-20T13:24:55.177Z,9.20
2023-04-20T13:27:22.612Z,8.82
2023-04-20T13:29:50.185Z,6.90
2023-04-20T13:32:17.635Z,7.45
2023-04-20T13:34:46.230Z,8.05
2023-04-20T13:37:13.688Z,8.70
2023-04-20T13:39:41.382Z,7.15
2023-04-20T13:42:08.782Z,9.32
2023-04-20T13:44:36.517Z,11.10
2023-04-20T13:47:04.249Z,10.82
2023-04-20T13:49:31.716Z,12.13
2023-04-20T13:51:59.128Z,10.50
2023-04-20T13:54:26.789Z,8.15
2023-04-20T13:56:54.272Z,8.90
2023-04-20T13:59:22.138Z,8.13
2023-04-20T14:01:49.851Z,7.75
2023-04-20T14:04:17.775Z,5.72
2023-04-20T14:06:45.379Z,8.25
2023-04-20T14:09:12.979Z,8.85
2023-04-20T14:11:41.009Z,8.23
2023-04-20T14:14:08.542Z,10.63
2023-04-20T14:16:43.675Z,10.18
2023-04-20T14:19:11.207Z,14.65
2023-04-20T14:21:38.674Z,9.98
2023-04-20T14:24:06.474Z,13.75
2023-04-20T14:26:34.034Z,14.40
2023-04-20T14:29:01.627Z,14.93
2023-04-20T14:31:29.289Z,13.95
2023-04-20T14:33:56.890Z,27.25
2023-04-20T14:36:24.349Z,26.23
2023-04-20T14:38:51.904Z,18.38
2023-04-20T14:41:19.293Z,15.93
2023-04-20T14:43:46.765Z,19.38
2023-04-20T14:46:14.490Z,26.27
2023-04-20T14:48:41.975Z,23.60
2023-04-20T14:51:09.429Z,27.65
2023-04-20T14:53:36.973Z,20.05
2023-04-20T14:56:04.492Z,18.67
2023-04-20T14:58:32.335Z,16.55
2023-04-20T15:00:59.855Z,14.70
2023-04-20T15:03:27.535Z,16.92
2023-04-20T15:06:00.063Z,11.38
2023-04-20T15:08:27.821Z,12.48
2023-04-20T15:10:56.737Z,11.65
2023-04-20T15:13:24.913Z,8.00
2023-04-20T15:15:55.108Z,13.23
2023-04-20T15:18:22.954Z,15.57
2023-04-20T15:20:52.564Z,21.58
2023-04-20T15:23:20.064Z,20.52
2023-04-20T15:25:47.619Z,19.02
2023-04-20T15:28:15.332Z,20.88
2023-04-20T15:30:43.065Z,19.17
2023-04-20T15:33:11.231Z,19.63
2023-04-20T15:35:38.856Z,15.13
2023-04-20T15:38:06.421Z,13.15
2023-04-20T15:40:34.007Z,12.45
2023-04-20T15:43:02.908Z,15.38
2023-04-20T15:45:31.272Z,14.65
2023-04-20T15:47:59.622Z,14.77
2023-04-20T15:50:27.335Z,14.20
2023-04-20T15:52:55.128Z,11.70
2023-04-20T15:55:22.627Z,13.40
2023-04-20T15:57:50.028Z,12.35
2023-04-20T16:00:17.721Z,11.18
2023-04-20T16:02:45.269Z,10.23
2023-04-20T16:05:12.794Z,9.68
2023-04-20T16:07:40.169Z,11.82
2023-04-20T16:10:08.052Z,11.90
2023-04-20T16:12:35.518Z,9.40
2023-04-20T16:15:03.955Z,10.57
2023-04-20T16:17:31.458Z,10.95
2023-04-20T16:19:58.983Z,15.20
2023-04-20T16:22:26.458Z,17.52
2023-04-20T16:24:54.077Z,17.75
2023-04-20T16:27:21.771Z,16.50
2023-04-20T16:29:49.273Z,17.73
2023-04-20T16:32:16.805Z,15.90
2023-04-20T16:34:44.415Z,15.80
2023-04-20T16:37:11.829Z,12.85
2023-04-20T16:39:39.336Z,11.52
2023-04-20T16:42:06.799Z,10.05
2023-04-20T16:44:34.283Z,11.05
2023-04-20T16:47:02.097Z,14.30
2023-04-20T16:49:29.817Z,14.88
2023-04-20T16:51:57.655Z,13.15
2023-04-20T16:54:25.080Z,11.23
2023-04-20T16:56:52.583Z,18.77
2023-04-20T16:59:20.330Z,20.92
2023-04-20T17:01:49.695Z,20.67
2023-04-20T17:04:18.545Z,21.15
2023-04-20T17:06:49.056Z,17.92
2023-04-20T17:09:16.519Z,17.13
2023-04-20T17:11:43.941Z,18.98
2023-04-20T17:14:11.477Z,22.17
2023-04-20T17:16:38.932Z,17.00
2023-04-20T17:19:06.416Z,21.83
2023-04-20T17:21:33.846Z,22.92
2023-04-20T17:24:01.405Z,21.48
2023-04-20T17:26:28.785Z,22.98
2023-04-20T17:28:56.358Z,21.95
2023-04-20T17:31:23.845Z,21.75
2023-04-20T17:33:51.422Z,22.23
2023-04-20T17:36:19.039Z,23.42
2023-04-20T17:38:46.464Z,23.60
2023-04-20T17:41:13.920Z,19.33
2023-04-20T17:43:41.503Z,20.17
2023-04-20T17:46:09.163Z,20.02
2023-04-20T17:48:36.706Z,19.92
2023-04-20T17:51:04.290Z,19.77
2023-04-20T17:53:31.893Z,19.65
2023-04-20T17:55:59.393Z,18.08
2023-04-20T17:58:26.790Z,19.08
2023-04-20T18:00:54.350Z,19.30
2023-04-20T18:03:21.890Z,24.48
2023-04-20T18:05:49.488Z,22.17
2023-04-20T18:08:17.818Z,15.23
2023-04-20T18:10:45.388Z,14.50
2023-04-20T18:13:12.784Z,12.95
2023-04-20T18:15:40.480Z,12.98
2023-04-20T18:18:07.980Z,13.18
2023-04-20T18:20:35.593Z,18.52
2023-04-20T18:23:03.058Z,14.80
2023-04-20T18:25:30.596Z,13.82
2023-04-20T18:27:58.406Z,16.77
2023-04-20T18:30:25.994Z,15.45
2023-04-20T18:32:56.086Z,13.48
2023-04-20T18:35:23.693Z,12.35
2023-04-20T18:37:51.891Z,16.35
2023-04-20T18:40:19.306Z,26.80
2023-04-20T18:42:46.928Z,26.13
2023-04-20T18:45:14.288Z,37.80
2023-04-20T18:47:43.512Z,34.88
2023-04-20T18:50:11.792Z,28.17
2023-04-20T18:52:39.398Z,24.38
2023-04-20T18:55:07.153Z,21.45
2023-04-20T18:57:34.622Z,23.02
2023-04-20T19:00:02.086Z,20.55
2023-04-20T19:02:29.718Z,16.02
2023-04-20T19:04:57.214Z,14.57
2023-04-20T19:07:24.737Z,13.45
2023-04-20T19:09:52.166Z,14.38
2023-04-20T19:12:19.707Z,14.25
2023-04-20T19:14:49.118Z,9.93
2023-04-20T19:17:16.976Z,8.60
2023-04-20T19:19:44.409Z,10.13
2023-04-20T19:22:11.940Z,11.68
2023-04-20T19:24:39.358Z,12.38
2023-04-20T19:27:06.934Z,10.27
2023-04-20T19:29:36.056Z,9.65
2023-04-20T19:32:03.771Z,11.52
2023-04-20T19:34:31.223Z,12.38
2023-04-20T19:36:58.666Z,14.63
2023-04-20T19:39:26.201Z,13.82
2023-04-20T19:41:53.751Z,13.80
2023-04-20T19:44:21.332Z,14.90
2023-04-20T19:46:49.978Z,15.27
2023-04-20T19:49:17.625Z,12.63
2023-04-20T19:51:45.323Z,14.07
2023-04-20T19:54:12.827Z,15.93
2023-04-20T19:56:40.497Z,15.50
2023-04-20T19:59:07.952Z,17.00
2023-04-20T20:01:35.491Z,25.45
2023-04-20T20:04:03.188Z,19.48
2023-04-20T20:06:32.195Z,19.50
2023-04-20T20:08:59.687Z,18.38
2023-04-20T20:11:27.488Z,47.65
2023-04-20T20:13:55.232Z,32.17
2023-04-20T20:16:22.783Z,19.70
2023-04-20T20:18:51.015Z,21.10
2023-04-20T20:21:18.431Z,16.60
2023-04-20T20:23:46.354Z,16.85
2023-04-20T20:26:13.781Z,18.40
2023-04-20T20:28:43.548Z,19.02
2023-04-20T20:31:11.277Z,16.50
2023-04-20T20:33:39.314Z,16.92
2023-04-20T20:36:06.910Z,18.63
2023-04-20T20:38:34.705Z,15.93
2023-04-20T20:41:02.277Z,16.40
2023-04-20T20:43:31.565Z,16.58
2023-04-20T20:45:59.108Z,15.93
2023-04-20T20:48:26.709Z,18.13
2023-04-20T20:50:54.202Z,17.23
2023-04-20T20:53:21.698Z,14.93
2023-04-20T20:55:49.151Z,14.77
2023-04-20T20:58:19.102Z,12.98
2023-04-20T21:00:47.312Z,15.15
2023-04-20T21:03:17.748Z,13.48
2023-04-20T21:05:45.647Z,12.73
2023-04-20T21:08:13.128Z,13.82
2023-04-20T21:10:40.748Z,10.98
2023-04-20T21:13:08.100Z,13.57
2023-04-20T21:15:35.623Z,12.32
2023-04-20T21:18:03.113Z,13.90
2023-04-20T21:20:30.671Z,12.55
2023-04-20T21:22:58.070Z,14.70
2023-04-20T21:25:25.630Z,12.02
2023-04-20T21:27:53.107Z,12.93
2023-04-20T21:30:20.567Z,10.98
2023-04-20T21:32:47.970Z,11.60
2023-04-20T21:35:15.659Z,11.18
2023-04-20T21:37:43.726Z,10.20
2023-04-20T21:40:11.441Z,11.93
2023-04-20T21:42:38.825Z,12.60
2023-04-20T21:45:06.539Z,14.82
2023-04-20T21:47:33.961Z,11.73
2023-04-20T21:50:01.499Z,10.55
2023-04-20T21:52:28.912Z,10.50
2023-04-20T21:54:56.342Z,10.30
2023-04-20T21:57:23.734Z,11.05
2023-04-20T21:59:51.225Z,16.80
2023-04-20T22:02:18.799Z,12.60
2023-04-20T22:04:46.481Z,17.33
2023-04-20T22:07:14.640Z,11.77
2023-04-20T22:09:42.393Z,10.88
2023-04-20T22:12:09.784Z,10.50
2023-04-20T22:14:37.280Z,14.05
2023-04-20T22:17:05.102Z,12.80
2023-04-20T22:19:32.665Z,13.25
2023-04-20T22:22:00.202Z,16.33
2023-04-20T22:24:27.645Z,15.90
2023-04-20T22:26:55.012Z,10.48
2023-04-20T22:29:22.460Z,12.77
2023-04-20T22:31:49.868Z,11.15
2023-04-20T22:34:17.410Z,11.38
2023-04-20T22:36:44.783Z,13.02
2023-04-20T22:39:12.254Z,11.00
2023-04-20T22:41:39.694Z,12.68
2023-04-20T22:44:07.205Z,12.10
2023-04-20T22:46:34.654Z,13.52
2023-04-20T22:49:02.170Z,14.80
2023-04-20T22:51:29.572Z,13.98
2023-04-20T22:53:57.037Z,12.57
2023-04-20T22:56:24.681Z,14.07
2023-04-20T22:58:52.108Z,14.85
2023-04-20T23:01:19.626Z,14.13
2023-04-20T23:03:47.238Z,13.50
2023-04-20T23:06:18.832Z,13.10
2023-04-20T23:08:46.891Z,17.33
2023-04-20T23:11:16.473Z,15.70
2023-04-20T23:13:44.381Z,16.02
2023-04-20T23:16:11.858Z,13.68
2023-04-20T23:18:39.411Z,14.55
2023-04-20T23:21:06.789Z,12.35
2023-04-20T23:23:34.224Z,18.75
2023-04-20T23:26:01.635Z,16.67
2023-04-20T23:28:29.065Z,14.88
2023-04-20T23:30:56.496Z,15.52
2023-04-20T23:33:24.016Z,15.80
2023-04-20T23:35:51.565Z,13.80
2023-04-20T23:38:19.021Z,14.90
2023-04-20T23:40:46.450Z,15.70
2023-04-20T23:43:13.965Z,17.95
2023-04-20T23:45:41.464Z,18.23
2023-04-20T23:48:09.062Z,18.90
2023-04-20T23:50:37.272Z,17.25
2023-04-20T23:53:05.709Z,18.35
2023-04-20T23:55:33.380Z,18.52
2023-04-20T23:58:00.794Z,18.20
